sensor_id;sensor_type;location;lat;lon;timestamp;P1;durP1;ratioP1;P2;durP2;ratioP2
19095;SDS011;9680;52.520;13.332;2022-12-07T00:03:31;12.70;;;4.63;;
19095;SDS011;9680;52.520;13.332;2022-12-07T00:05:59;11.27;;;4.60;;
19095;SDS011;9680;52.520;13.332;2022-12-07T00:08:26;14.03;;;5.40;;
19095;SDS011;9680;52.520;13.332;2022-12-07T00:10:51;11.30;;;4.13;;
19095;SDS011;9680;52.520;13.332;2022-12-07T00:13:17;13.77;;;5.17;;
19095;SDS011;9680;52.520;13.332;2022-12-07T00:15:42;17.33;;;5.60;;
19095;SDS011;9680;52.520;13.332;2022-12-07T00:18:08;16.10;;;5.03;;
19095;SDS011;9680;52.520;13.332;2022-12-07T00:20:33;13.33;;;4.87;;
19095;SDS011;9680;52.520;13.332;2022-12-07T00:22:59;18.30;;;4.97;;
19095;SDS011;9680;52.520;13.332;2022-12-07T00:25:25;12.30;;;5.30;;
19095;SDS011;9680;52.520;13.332;2022-12-07T00:27:52;12.47;;;4.90;;
19095;SDS011;9680;52.520;13.332;2022-12-07T00:30:20;12.23;;;5.17;;
19095;SDS011;9680;52.520;13.332;2022-12-07T00:32:47;15.20;;;5.70;;
19095;SDS011;9680;52.520;13.332;2022-12-07T00:35:12;14.30;;;5.20;;
19095;SDS011;9680;52.520;13.332;2022-12-07T00:37:38;14.60;;;5.40;;
19095;SDS011;9680;52.520;13.332;2022-12-07T00:40:04;13.50;;;5.57;;
19095;SDS011;9680;52.520;13.332;2022-12-07T00:42:30;13.10;;;5.30;;
19095;SDS011;9680;52.520;13.332;2022-12-07T00:44:56;12.23;;;5.10;;
19095;SDS011;9680;52.520;13.332;2022-12-07T00:47:21;11.37;;;4.90;;
19095;SDS011;9680;52.520;13.332;2022-12-07T00:49:46;10.67;;;4.70;;
19095;SDS011;9680;52.520;13.332;2022-12-07T00:52:12;10.17;;;4.50;;
19095;SDS011;9680;52.520;13.332;2022-12-07T00:54:37;10.63;;;4.03;;
19095;SDS011;9680;52.520;13.332;2022-12-07T00:57:03;11.67;;;4.53;;
19095;SDS011;9680;52.520;13.332;2022-12-07T00:59:28;11.63;;;4.87;;
19095;SDS011;9680;52.520;13.332;2022-12-07T01:01:54;10.57;;;4.87;;
19095;SDS011;9680;52.520;13.332;2022-12-07T01:04:19;11.50;;;4.60;;
19095;SDS011;9680;52.520;13.332;2022-12-07T01:06:44;9.87;;;4.20;;
19095;SDS011;9680;52.520;13.332;2022-12-07T01:09:10;12.07;;;4.67;;
19095;SDS011;9680;52.520;13.332;2022-12-07T01:11:35;11.30;;;4.33;;
19095;SDS011;9680;52.520;13.332;2022-12-07T01:14:01;11.13;;;4.40;;
19095;SDS011;9680;52.520;13.332;2022-12-07T01:16:28;10.13;;;4.20;;
19095;SDS011;9680;52.520;13.332;2022-12-07T01:18:56;8.27;;;4.10;;
19095;SDS011;9680;52.520;13.332;2022-12-07T01:21:24;10.33;;;4.27;;
19095;SDS011;9680;52.520;13.332;2022-12-07T01:23:52;9.13;;;4.07;;
19095;SDS011;9680;52.520;13.332;2022-12-07T01:26:19;10.73;;;4.50;;
19095;SDS011;9680;52.520;13.332;2022-12-07T01:28:46;9.00;;;3.80;;
19095;SDS011;9680;52.520;13.332;2022-12-07T01:31:17;8.90;;;3.73;;
19095;SDS011;9680;52.520;13.332;2022-12-07T01:33:46;10.10;;;4.00;;
19095;SDS011;9680;52.520;13.332;2022-12-07T01:38:40;9.77;;;4.17;;
19095;SDS011;9680;52.520;13.332;2022-12-07T01:41:06;8.33;;;3.70;;
19095;SDS011;9680;52.520;13.332;2022-12-07T01:43:32;9.40;;;3.80;;
19095;SDS011;9680;52.520;13.332;2022-12-07T01:45:59;8.27;;;3.60;;
19095;SDS011;9680;52.520;13.332;2022-12-07T01:48:30;8.03;;;3.40;;
19095;SDS011;9680;52.520;13.332;2022-12-07T01:51:03;8.13;;;3.80;;
19095;SDS011;9680;52.520;13.332;2022-12-07T01:53:32;9.97;;;3.87;;
19095;SDS011;9680;52.520;13.332;2022-12-07T01:56:00;8.53;;;3.70;;
19095;SDS011;9680;52.520;13.332;2022-12-07T01:58:26;7.47;;;3.30;;
19095;SDS011;9680;52.520;13.332;2022-12-07T02:00:52;9.10;;;3.70;;
19095;SDS011;9680;52.520;13.332;2022-12-07T02:03:18;9.93;;;4.50;;
19095;SDS011;9680;52.520;13.332;2022-12-07T02:05:49;9.47;;;4.03;;
19095;SDS011;9680;52.520;13.332;2022-12-07T02:08:15;9.43;;;3.70;;
19095;SDS011;9680;52.520;13.332;2022-12-07T02:10:42;6.93;;;3.13;;
19095;SDS011;9680;52.520;13.332;2022-12-07T02:13:10;7.17;;;3.60;;
19095;SDS011;9680;52.520;13.332;2022-12-07T02:29:51;6.90;;;3.13;;
19095;SDS011;9680;52.520;13.332;2022-12-07T02:35:20;8.93;;;3.83;;
19095;SDS011;9680;52.520;13.332;2022-12-07T02:44:01;10.20;;;4.27;;
19095;SDS011;9680;52.520;13.332;2022-12-07T02:46:14;10.00;;;4.00;;
19095;SDS011;9680;52.520;13.332;2022-12-07T02:48:43;8.30;;;3.97;;
19095;SDS011;9680;52.520;13.332;2022-12-07T02:51:09;8.63;;;3.80;;
19095;SDS011;9680;52.520;13.332;2022-12-07T02:53:35;10.17;;;4.10;;
19095;SDS011;9680;52.520;13.332;2022-12-07T02:56:05;8.33;;;3.67;;
19095;SDS011;9680;52.520;13.332;2022-12-07T02:58:46;8.90;;;4.30;;
19095;SDS011;9680;52.520;13.332;2022-12-07T03:01:20;13.33;;;4.50;;
19095;SDS011;9680;52.520;13.332;2022-12-07T03:03:52;9.00;;;4.10;;
19095;SDS011;9680;52.520;13.332;2022-12-07T03:06:28;13.60;;;4.57;;
19095;SDS011;9680;52.520;13.332;2022-12-07T03:09:09;11.53;;;4.80;;
19095;SDS011;9680;52.520;13.332;2022-12-07T03:11:46;8.83;;;3.87;;
19095;SDS011;9680;52.520;13.332;2022-12-07T03:14:17;10.17;;;4.27;;
19095;SDS011;9680;52.520;13.332;2022-12-07T03:16:52;10.53;;;4.23;;
19095;SDS011;9680;52.520;13.332;2022-12-07T03:19:24;11.53;;;4.83;;
19095;SDS011;9680;52.520;13.332;2022-12-07T03:22:02;10.93;;;4.57;;
19095;SDS011;9680;52.520;13.332;2022-12-07T03:24:37;15.53;;;5.00;;
19095;SDS011;9680;52.520;13.332;2022-12-07T03:27:10;13.67;;;4.70;;
19095;SDS011;9680;52.520;13.332;2022-12-07T03:29:53;13.00;;;5.33;;
19095;SDS011;9680;52.520;13.332;2022-12-07T03:32:59;13.27;;;5.27;;
19095;SDS011;9680;52.520;13.332;2022-12-07T03:38:15;12.50;;;5.43;;
19095;SDS011;9680;52.520;13.332;2022-12-07T03:43:25;13.17;;;5.33;;
19095;SDS011;9680;52.520;13.332;2022-12-07T03:54:21;12.57;;;4.90;;
19095;SDS011;9680;52.520;13.332;2022-12-07T03:56:52;13.63;;;5.37;;
19095;SDS011;9680;52.520;13.332;2022-12-07T03:59:19;13.13;;;5.17;;
19095;SDS011;9680;52.520;13.332;2022-12-07T04:01:51;15.57;;;6.33;;
19095;SDS011;9680;52.520;13.332;2022-12-07T04:04:19;13.77;;;5.33;;
19095;SDS011;9680;52.520;13.332;2022-12-07T04:06:45;14.03;;;5.10;;
19095;SDS011;9680;52.520;13.332;2022-12-07T04:09:11;12.33;;;5.07;;
19095;SDS011;9680;52.520;13.332;2022-12-07T04:11:36;15.53;;;5.93;;
19095;SDS011;9680;52.520;13.332;2022-12-07T04:14:01;15.53;;;5.30;;
19095;SDS011;9680;52.520;13.332;2022-12-07T04:16:46;18.03;;;6.00;;
19095;SDS011;9680;52.520;13.332;2022-12-07T04:19:13;14.70;;;6.17;;
19095;SDS011;9680;52.520;13.332;2022-12-07T04:21:40;17.63;;;6.43;;
19095;SDS011;9680;52.520;13.332;2022-12-07T04:24:05;15.20;;;5.97;;
19095;SDS011;9680;52.520;13.332;2022-12-07T04:26:31;18.03;;;6.80;;
19095;SDS011;9680;52.520;13.332;2022-12-07T04:28:57;17.17;;;5.97;;
19095;SDS011;9680;52.520;13.332;2022-12-07T04:31:23;16.23;;;6.60;;
19095;SDS011;9680;52.520;13.332;2022-12-07T04:33:48;20.30;;;7.33;;
19095;SDS011;9680;52.520;13.332;2022-12-07T04:36:14;18.93;;;7.30;;
19095;SDS011;9680;52.520;13.332;2022-12-07T04:38:39;17.70;;;6.87;;
19095;SDS011;9680;52.520;13.332;2022-12-07T04:41:05;20.20;;;7.37;;
19095;SDS011;9680;52.520;13.332;2022-12-07T04:43:31;19.40;;;7.23;;
19095;SDS011;9680;52.520;13.332;2022-12-07T04:45:57;19.07;;;7.53;;
19095;SDS011;9680;52.520;13.332;2022-12-07T04:48:23;18.60;;;6.93;;
19095;SDS011;9680;52.520;13.332;2022-12-07T04:50:48;21.60;;;8.13;;
19095;SDS011;9680;52.520;13.332;2022-12-07T04:53:17;21.73;;;7.90;;
19095;SDS011;9680;52.520;13.332;2022-12-07T04:55:43;19.63;;;7.30;;
19095;SDS011;9680;52.520;13.332;2022-12-07T04:58:10;21.57;;;7.77;;
19095;SDS011;9680;52.520;13.332;2022-12-07T05:00:36;21.57;;;8.20;;
19095;SDS011;9680;52.520;13.332;2022-12-07T05:03:01;19.70;;;8.03;;
19095;SDS011;9680;52.520;13.332;2022-12-07T05:05:27;23.07;;;8.47;;
19095;SDS011;9680;52.520;13.332;2022-12-07T05:07:52;21.30;;;8.53;;
19095;SDS011;9680;52.520;13.332;2022-12-07T05:10:18;23.03;;;8.57;;
19095;SDS011;9680;52.520;13.332;2022-12-07T05:12:43;23.73;;;8.70;;
19095;SDS011;9680;52.520;13.332;2022-12-07T05:15:10;25.07;;;8.83;;
19095;SDS011;9680;52.520;13.332;2022-12-07T05:17:35;26.73;;;9.37;;
19095;SDS011;9680;52.520;13.332;2022-12-07T05:20:01;28.63;;;9.60;;
19095;SDS011;9680;52.520;13.332;2022-12-07T05:22:26;27.83;;;9.73;;
19095;SDS011;9680;52.520;13.332;2022-12-07T05:24:53;25.77;;;9.20;;
19095;SDS011;9680;52.520;13.332;2022-12-07T05:27:19;33.40;;;9.20;;
19095;SDS011;9680;52.520;13.332;2022-12-07T05:29:45;26.50;;;8.97;;
19095;SDS011;9680;52.520;13.332;2022-12-07T05:32:11;26.30;;;9.77;;
19095;SDS011;9680;52.520;13.332;2022-12-07T05:34:37;26.30;;;9.67;;
19095;SDS011;9680;52.520;13.332;2022-12-07T05:37:02;24.10;;;9.00;;
19095;SDS011;9680;52.520;13.332;2022-12-07T05:39:27;26.37;;;10.03;;
19095;SDS011;9680;52.520;13.332;2022-12-07T05:41:53;25.53;;;9.67;;
19095;SDS011;9680;52.520;13.332;2022-12-07T05:44:37;28.67;;;9.97;;
19095;SDS011;9680;52.520;13.332;2022-12-07T05:47:12;30.77;;;9.80;;
19095;SDS011;9680;52.520;13.332;2022-12-07T05:49:39;33.30;;;10.33;;
19095;SDS011;9680;52.520;13.332;2022-12-07T05:52:04;27.30;;;10.17;;
19095;SDS011;9680;52.520;13.332;2022-12-07T05:54:30;27.57;;;10.53;;
19095;SDS011;9680;52.520;13.332;2022-12-07T05:56:56;36.50;;;10.77;;
19095;SDS011;9680;52.520;13.332;2022-12-07T05:59:21;27.90;;;10.50;;
19095;SDS011;9680;52.520;13.332;2022-12-07T06:01:58;30.13;;;10.57;;
19095;SDS011;9680;52.520;13.332;2022-12-07T06:04:24;32.47;;;9.53;;
19095;SDS011;9680;52.520;13.332;2022-12-07T06:06:51;31.90;;;10.00;;
19095;SDS011;9680;52.520;13.332;2022-12-07T06:09:17;30.20;;;10.37;;
19095;SDS011;9680;52.520;13.332;2022-12-07T06:11:44;28.03;;;9.57;;
19095;SDS011;9680;52.520;13.332;2022-12-07T06:14:28;30.33;;;10.07;;
19095;SDS011;9680;52.520;13.332;2022-12-07T06:16:53;27.83;;;10.27;;
19095;SDS011;9680;52.520;13.332;2022-12-07T06:19:19;32.13;;;10.57;;
19095;SDS011;9680;52.520;13.332;2022-12-07T06:21:44;27.10;;;9.23;;
19095;SDS011;9680;52.520;13.332;2022-12-07T06:24:10;25.23;;;9.03;;
19095;SDS011;9680;52.520;13.332;2022-12-07T06:26:37;28.53;;;9.43;;
19095;SDS011;9680;52.520;13.332;2022-12-07T06:29:03;28.90;;;9.27;;
19095;SDS011;9680;52.520;13.332;2022-12-07T06:31:29;26.60;;;9.57;;
19095;SDS011;9680;52.520;13.332;2022-12-07T06:33:58;25.93;;;9.20;;
19095;SDS011;9680;52.520;13.332;2022-12-07T06:36:28;24.23;;;8.37;;
19095;SDS011;9680;52.520;13.332;2022-12-07T06:38:54;27.70;;;9.80;;
19095;SDS011;9680;52.520;13.332;2022-12-07T06:41:20;27.60;;;9.30;;
19095;SDS011;9680;52.520;13.332;2022-12-07T06:43:45;24.13;;;9.47;;
19095;SDS011;9680;52.520;13.332;2022-12-07T06:46:11;33.27;;;9.97;;
19095;SDS011;9680;52.520;13.332;2022-12-07T06:48:37;32.43;;;10.50;;
19095;SDS011;9680;52.520;13.332;2022-12-07T06:51:03;30.77;;;9.83;;
19095;SDS011;9680;52.520;13.332;2022-12-07T06:53:29;28.60;;;9.57;;
19095;SDS011;9680;52.520;13.332;2022-12-07T06:55:54;32.13;;;10.67;;
19095;SDS011;9680;52.520;13.332;2022-12-07T06:58:20;28.60;;;9.53;;
19095;SDS011;9680;52.520;13.332;2022-12-07T07:00:45;31.33;;;10.53;;
19095;SDS011;9680;52.520;13.332;2022-12-07T07:03:13;32.80;;;10.67;;
19095;SDS011;9680;52.520;13.332;2022-12-07T07:05:38;24.73;;;9.90;;
19095;SDS011;9680;52.520;13.332;2022-12-07T07:08:04;27.63;;;9.13;;
19095;SDS011;9680;52.520;13.332;2022-12-07T07:10:30;24.67;;;9.70;;
19095;SDS011;9680;52.520;13.332;2022-12-07T07:12:55;28.50;;;10.33;;
19095;SDS011;9680;52.520;13.332;2022-12-07T07:15:21;28.30;;;9.87;;
19095;SDS011;9680;52.520;13.332;2022-12-07T07:17:47;28.70;;;10.80;;
19095;SDS011;9680;52.520;13.332;2022-12-07T07:20:12;31.07;;;9.83;;
19095;SDS011;9680;52.520;13.332;2022-12-07T07:22:39;25.63;;;9.87;;
19095;SDS011;9680;52.520;13.332;2022-12-07T07:25:04;28.97;;;9.73;;
19095;SDS011;9680;52.520;13.332;2022-12-07T07:27:30;28.13;;;10.30;;
19095;SDS011;9680;52.520;13.332;2022-12-07T07:29:56;29.73;;;9.13;;
19095;SDS011;9680;52.520;13.332;2022-12-07T07:32:21;28.10;;;8.70;;
19095;SDS011;9680;52.520;13.332;2022-12-07T07:34:47;26.90;;;9.37;;
19095;SDS011;9680;52.520;13.332;2022-12-07T07:37:13;23.00;;;8.73;;
19095;SDS011;9680;52.520;13.332;2022-12-07T07:39:39;26.53;;;8.83;;
19095;SDS011;9680;52.520;13.332;2022-12-07T07:42:04;24.73;;;8.13;;
19095;SDS011;9680;52.520;13.332;2022-12-07T07:44:31;23.93;;;8.77;;
19095;SDS011;9680;52.520;13.332;2022-12-07T07:46:57;26.57;;;8.20;;
19095;SDS011;9680;52.520;13.332;2022-12-07T07:49:22;24.70;;;8.17;;
19095;SDS011;9680;52.520;13.332;2022-12-07T07:51:48;21.83;;;7.40;;
19095;SDS011;9680;52.520;13.332;2022-12-07T07:54:13;21.03;;;7.20;;
19095;SDS011;9680;52.520;13.332;2022-12-07T07:56:39;18.93;;;6.73;;
19095;SDS011;9680;52.520;13.332;2022-12-07T07:59:04;22.20;;;6.57;;
19095;SDS011;9680;52.520;13.332;2022-12-07T08:01:30;19.73;;;6.80;;
19095;SDS011;9680;52.520;13.332;2022-12-07T08:03:55;13.67;;;5.80;;
19095;SDS011;9680;52.520;13.332;2022-12-07T08:06:21;18.07;;;5.70;;
19095;SDS011;9680;52.520;13.332;2022-12-07T08:08:48;15.50;;;5.70;;
19095;SDS011;9680;52.520;13.332;2022-12-07T08:11:14;13.73;;;5.57;;
19095;SDS011;9680;52.520;13.332;2022-12-07T08:13:40;11.20;;;5.20;;
19095;SDS011;9680;52.520;13.332;2022-12-07T08:16:06;14.03;;;5.33;;
19095;SDS011;9680;52.520;13.332;2022-12-07T08:18:37;15.90;;;4.73;;
19095;SDS011;9680;52.520;13.332;2022-12-07T08:21:04;13.73;;;4.63;;
19095;SDS011;9680;52.520;13.332;2022-12-07T08:23:31;11.83;;;4.77;;
19095;SDS011;9680;52.520;13.332;2022-12-07T08:26:04;12.20;;;4.73;;
19095;SDS011;9680;52.520;13.332;2022-12-07T08:28:31;14.30;;;4.70;;
19095;SDS011;9680;52.520;13.332;2022-12-07T08:31:13;12.33;;;4.30;;
19095;SDS011;9680;52.520;13.332;2022-12-07T08:33:41;11.63;;;4.13;;
19095;SDS011;9680;52.520;13.332;2022-12-07T08:36:08;10.40;;;3.70;;
19095;SDS011;9680;52.520;13.332;2022-12-07T08:38:36;7.73;;;3.73;;
19095;SDS011;9680;52.520;13.332;2022-12-07T08:41:03;7.43;;;3.73;;
19095;SDS011;9680;52.520;13.332;2022-12-07T08:43:53;7.53;;;3.13;;
19095;SDS011;9680;52.520;13.332;2022-12-07T08:46:30;8.13;;;3.20;;
19095;SDS011;9680;52.520;13.332;2022-12-07T08:49:08;9.27;;;3.03;;
19095;SDS011;9680;52.520;13.332;2022-12-07T08:51:36;8.20;;;2.70;;
19095;SDS011;9680;52.520;13.332;2022-12-07T08:54:04;3.57;;;2.10;;
19095;SDS011;9680;52.520;13.332;2022-12-07T08:56:33;4.33;;;2.03;;
19095;SDS011;9680;52.520;13.332;2022-12-07T08:59:00;6.17;;;2.07;;
19095;SDS011;9680;52.520;13.332;2022-12-07T09:01:25;5.47;;;2.30;;
19095;SDS011;9680;52.520;13.332;2022-12-07T09:03:52;5.20;;;2.30;;
19095;SDS011;9680;52.520;13.332;2022-12-07T09:06:18;4.10;;;2.20;;
19095;SDS011;9680;52.520;13.332;2022-12-07T09:08:45;4.97;;;1.70;;
19095;SDS011;9680;52.520;13.332;2022-12-07T09:11:13;3.60;;;1.77;;
19095;SDS011;9680;52.520;13.332;2022-12-07T09:13:38;3.73;;;1.70;;
19095;SDS011;9680;52.520;13.332;2022-12-07T09:16:04;2.53;;;1.53;;
19095;SDS011;9680;52.520;13.332;2022-12-07T09:18:30;3.23;;;1.77;;
19095;SDS011;9680;52.520;13.332;2022-12-07T09:20:55;3.87;;;1.60;;
19095;SDS011;9680;52.520;13.332;2022-12-07T09:23:21;3.10;;;1.57;;
19095;SDS011;9680;52.520;13.332;2022-12-07T09:25:47;3.97;;;2.03;;
19095;SDS011;9680;52.520;13.332;2022-12-07T09:28:12;3.73;;;1.73;;
19095;SDS011;9680;52.520;13.332;2022-12-07T09:30:44;4.20;;;1.70;;
19095;SDS011;9680;52.520;13.332;2022-12-07T09:33:11;2.80;;;1.70;;
19095;SDS011;9680;52.520;13.332;2022-12-07T09:35:36;4.33;;;2.00;;
19095;SDS011;9680;52.520;13.332;2022-12-07T09:38:02;3.43;;;1.90;;
19095;SDS011;9680;52.520;13.332;2022-12-07T09:40:27;5.67;;;2.43;;
19095;SDS011;9680;52.520;13.332;2022-12-07T09:42:53;3.13;;;1.57;;
19095;SDS011;9680;52.520;13.332;2022-12-07T09:45:22;4.50;;;1.70;;
19095;SDS011;9680;52.520;13.332;2022-12-07T09:47:51;4.43;;;1.80;;
19095;SDS011;9680;52.520;13.332;2022-12-07T09:50:27;3.70;;;1.90;;
19095;SDS011;9680;52.520;13.332;2022-12-07T09:53:40;3.37;;;1.60;;
19095;SDS011;9680;52.520;13.332;2022-12-07T09:55:47;3.37;;;1.70;;
19095;SDS011;9680;52.520;13.332;2022-12-07T09:58:23;3.13;;;1.63;;
19095;SDS011;9680;52.520;13.332;2022-12-07T10:01:05;3.23;;;1.70;;
19095;SDS011;9680;52.520;13.332;2022-12-07T10:03:38;3.03;;;1.90;;
19095;SDS011;9680;52.520;13.332;2022-12-07T10:06:06;4.93;;;2.00;;
19095;SDS011;9680;52.520;13.332;2022-12-07T10:08:33;3.70;;;1.77;;
19095;SDS011;9680;52.520;13.332;2022-12-07T10:10:59;3.63;;;1.80;;
19095;SDS011;9680;52.520;13.332;2022-12-07T10:16:39;4.93;;;1.60;;
19095;SDS011;9680;52.520;13.332;2022-12-07T10:24:46;3.83;;;2.10;;
19095;SDS011;9680;52.520;13.332;2022-12-07T10:27:19;5.03;;;2.20;;
19095;SDS011;9680;52.520;13.332;2022-12-07T10:29:48;5.13;;;2.07;;
19095;SDS011;9680;52.520;13.332;2022-12-07T10:34:40;5.53;;;2.10;;
19095;SDS011;9680;52.520;13.332;2022-12-07T10:39:49;4.80;;;1.90;;
19095;SDS011;9680;52.520;13.332;2022-12-07T10:42:23;4.50;;;2.30;;
19095;SDS011;9680;52.520;13.332;2022-12-07T10:45:07;5.27;;;2.37;;
19095;SDS011;9680;52.520;13.332;2022-12-07T11:00:00;5.87;;;2.97;;
19095;SDS011;9680;52.520;13.332;2022-12-07T11:03:23;7.43;;;3.20;;
19095;SDS011;9680;52.520;13.332;2022-12-07T11:05:39;5.97;;;2.80;;
19095;SDS011;9680;52.520;13.332;2022-12-07T11:08:44;7.13;;;3.43;;
19095;SDS011;9680;52.520;13.332;2022-12-07T11:13:49;7.00;;;3.40;;
19095;SDS011;9680;52.520;13.332;2022-12-07T11:27:35;9.00;;;3.13;;
19095;SDS011;9680;52.520;13.332;2022-12-07T11:30:11;6.47;;;3.20;;
19095;SDS011;9680;52.520;13.332;2022-12-07T11:32:44;5.07;;;3.03;;
19095;SDS011;9680;52.520;13.332;2022-12-07T11:35:20;7.67;;;3.20;;
19095;SDS011;9680;52.520;13.332;2022-12-07T11:37:55;8.70;;;2.67;;
19095;SDS011;9680;52.520;13.332;2022-12-07T11:40:26;10.90;;;3.40;;
19095;SDS011;9680;52.520;13.332;2022-12-07T11:42:59;6.90;;;3.30;;
19095;SDS011;9680;52.520;13.332;2022-12-07T11:45:34;7.23;;;3.13;;
19095;SDS011;9680;52.520;13.332;2022-12-07T11:48:03;7.90;;;3.80;;
19095;SDS011;9680;52.520;13.332;2022-12-07T12:03:45;10.47;;;2.97;;
19095;SDS011;9680;52.520;13.332;2022-12-07T12:06:12;8.20;;;2.83;;
19095;SDS011;9680;52.520;13.332;2022-12-07T12:08:43;7.03;;;2.67;;
19095;SDS011;9680;52.520;13.332;2022-12-07T12:19:15;5.77;;;2.13;;
19095;SDS011;9680;52.520;13.332;2022-12-07T12:21:58;4.70;;;2.50;;
19095;SDS011;9680;52.520;13.332;2022-12-07T12:24:31;7.20;;;2.40;;
19095;SDS011;9680;52.520;13.332;2022-12-07T12:27:05;5.97;;;2.23;;
19095;SDS011;9680;52.520;13.332;2022-12-07T12:29:38;5.00;;;2.10;;
19095;SDS011;9680;52.520;13.332;2022-12-07T12:37:53;4.37;;;2.30;;
19095;SDS011;9680;52.520;13.332;2022-12-07T12:50:22;4.93;;;1.97;;
19095;SDS011;9680;52.520;13.332;2022-12-07T12:58:32;6.70;;;2.10;;
19095;SDS011;9680;52.520;13.332;2022-12-07T13:03:56;7.17;;;2.00;;
19095;SDS011;9680;52.520;13.332;2022-12-07T13:08:50;14.50;;;1.60;;
19095;SDS011;9680;52.520;13.332;2022-12-07T13:11:18;8.57;;;2.37;;
19095;SDS011;9680;52.520;13.332;2022-12-07T13:14:17;6.13;;;1.90;;
19095;SDS011;9680;52.520;13.332;2022-12-07T13:16:57;3.57;;;1.67;;
19095;SDS011;9680;52.520;13.332;2022-12-07T13:20:06;12.33;;;2.00;;
19095;SDS011;9680;52.520;13.332;2022-12-07T13:24:57;6.07;;;1.80;;
19095;SDS011;9680;52.520;13.332;2022-12-07T13:27:28;7.33;;;2.00;;
19095;SDS011;9680;52.520;13.332;2022-12-07T13:29:56;6.87;;;1.80;;
19095;SDS011;9680;52.520;13.332;2022-12-07T13:32:24;5.57;;;2.10;;
19095;SDS011;9680;52.520;13.332;2022-12-07T13:34:52;7.43;;;2.10;;
19095;SDS011;9680;52.520;13.332;2022-12-07T13:39:47;7.07;;;2.50;;
19095;SDS011;9680;52.520;13.332;2022-12-07T13:44:52;8.33;;;2.40;;
19095;SDS011;9680;52.520;13.332;2022-12-07T13:47:32;4.37;;;2.00;;
19095;SDS011;9680;52.520;13.332;2022-12-07T13:52:55;9.83;;;1.90;;
19095;SDS011;9680;52.520;13.332;2022-12-07T13:55:21;4.97;;;1.87;;
19095;SDS011;9680;52.520;13.332;2022-12-07T13:57:49;7.87;;;1.90;;
19095;SDS011;9680;52.520;13.332;2022-12-07T14:00:19;3.77;;;1.70;;
19095;SDS011;9680;52.520;13.332;2022-12-07T14:03:19;2.93;;;2.00;;
19095;SDS011;9680;52.520;13.332;2022-12-07T14:06:12;8.97;;;1.80;;
19095;SDS011;9680;52.520;13.332;2022-12-07T14:08:44;5.77;;;1.77;;
19095;SDS011;9680;52.520;13.332;2022-12-07T14:11:17;5.83;;;2.00;;
19095;SDS011;9680;52.520;13.332;2022-12-07T14:16:24;5.10;;;1.60;;
19095;SDS011;9680;52.520;13.332;2022-12-07T14:18:55;8.30;;;2.00;;
19095;SDS011;9680;52.520;13.332;2022-12-07T14:21:23;3.80;;;1.87;;
19095;SDS011;9680;52.520;13.332;2022-12-07T14:24:11;7.77;;;2.03;;
19095;SDS011;9680;52.520;13.332;2022-12-07T14:26:43;4.23;;;1.90;;
19095;SDS011;9680;52.520;13.332;2022-12-07T14:29:29;6.87;;;2.27;;
19095;SDS011;9680;52.520;13.332;2022-12-07T14:31:57;6.63;;;2.27;;
19095;SDS011;9680;52.520;13.332;2022-12-07T14:36:55;3.83;;;1.87;;
19095;SDS011;9680;52.520;13.332;2022-12-07T14:39:21;7.17;;;2.10;;
19095;SDS011;9680;52.520;13.332;2022-12-07T14:44:26;7.73;;;2.27;;
19095;SDS011;9680;52.520;13.332;2022-12-07T14:46:52;7.30;;;2.00;;
19095;SDS011;9680;52.520;13.332;2022-12-07T14:49:18;5.13;;;1.97;;
19095;SDS011;9680;52.520;13.332;2022-12-07T14:51:45;5.97;;;2.07;;
19095;SDS011;9680;52.520;13.332;2022-12-07T14:54:18;8.10;;;2.00;;
19095;SDS011;9680;52.520;13.332;2022-12-07T14:56:46;8.20;;;1.90;;
19095;SDS011;9680;52.520;13.332;2022-12-07T14:59:17;7.17;;;2.13;;
19095;SDS011;9680;52.520;13.332;2022-12-07T15:01:43;5.87;;;2.37;;
19095;SDS011;9680;52.520;13.332;2022-12-07T15:04:09;8.17;;;2.03;;
19095;SDS011;9680;52.520;13.332;2022-12-07T15:06:35;9.73;;;1.77;;
19095;SDS011;9680;52.520;13.332;2022-12-07T15:09:00;10.73;;;2.10;;
19095;SDS011;9680;52.520;13.332;2022-12-07T15:11:27;8.57;;;1.90;;
19095;SDS011;9680;52.520;13.332;2022-12-07T15:13:52;5.70;;;1.60;;
19095;SDS011;9680;52.520;13.332;2022-12-07T15:16:33;6.27;;;1.40;;
19095;SDS011;9680;52.520;13.332;2022-12-07T15:19:00;4.90;;;1.50;;
19095;SDS011;9680;52.520;13.332;2022-12-07T15:21:26;4.03;;;1.53;;
19095;SDS011;9680;52.520;13.332;2022-12-07T15:23:51;5.57;;;1.70;;
19095;SDS011;9680;52.520;13.332;2022-12-07T15:26:17;4.30;;;1.60;;
19095;SDS011;9680;52.520;13.332;2022-12-07T15:28:42;8.27;;;1.67;;
19095;SDS011;9680;52.520;13.332;2022-12-07T15:31:14;5.60;;;1.77;;
19095;SDS011;9680;52.520;13.332;2022-12-07T15:33:41;9.87;;;1.77;;
19095;SDS011;9680;52.520;13.332;2022-12-07T15:36:07;6.23;;;1.80;;
19095;SDS011;9680;52.520;13.332;2022-12-07T15:38:32;5.60;;;1.70;;
19095;SDS011;9680;52.520;13.332;2022-12-07T15:41:02;5.47;;;1.70;;
19095;SDS011;9680;52.520;13.332;2022-12-07T15:43:28;6.23;;;1.60;;
19095;SDS011;9680;52.520;13.332;2022-12-07T15:46:12;10.27;;;1.80;;
19095;SDS011;9680;52.520;13.332;2022-12-07T15:48:37;10.77;;;1.70;;
19095;SDS011;9680;52.520;13.332;2022-12-07T15:51:03;4.37;;;1.63;;
19095;SDS011;9680;52.520;13.332;2022-12-07T15:53:30;5.43;;;1.63;;
19095;SDS011;9680;52.520;13.332;2022-12-07T15:59:17;6.70;;;1.87;;
19095;SDS011;9680;52.520;13.332;2022-12-07T16:01:46;5.87;;;1.70;;
19095;SDS011;9680;52.520;13.332;2022-12-07T16:04:12;6.67;;;1.83;;
19095;SDS011;9680;52.520;13.332;2022-12-07T16:06:38;6.53;;;1.67;;
19095;SDS011;9680;52.520;13.332;2022-12-07T16:09:04;6.00;;;1.83;;
19095;SDS011;9680;52.520;13.332;2022-12-07T16:11:31;10.57;;;1.87;;
19095;SDS011;9680;52.520;13.332;2022-12-07T16:13:58;6.10;;;2.07;;
19095;SDS011;9680;52.520;13.332;2022-12-07T16:16:23;6.47;;;1.60;;
19095;SDS011;9680;52.520;13.332;2022-12-07T16:18:50;6.67;;;1.90;;
19095;SDS011;9680;52.520;13.332;2022-12-07T16:21:16;7.57;;;2.20;;
19095;SDS011;9680;52.520;13.332;2022-12-07T16:23:42;4.57;;;1.50;;
19095;SDS011;9680;52.520;13.332;2022-12-07T16:26:10;6.47;;;1.87;;
19095;SDS011;9680;52.520;13.332;2022-12-07T16:28:40;8.53;;;1.80;;
19095;SDS011;9680;52.520;13.332;2022-12-07T16:31:08;4.00;;;1.50;;
19095;SDS011;9680;52.520;13.332;2022-12-07T16:33:35;6.13;;;1.90;;
19095;SDS011;9680;52.520;13.332;2022-12-07T16:36:03;7.57;;;2.17;;
19095;SDS011;9680;52.520;13.332;2022-12-07T16:38:29;9.90;;;2.10;;
19095;SDS011;9680;52.520;13.332;2022-12-07T16:40:55;7.60;;;2.00;;
19095;SDS011;9680;52.520;13.332;2022-12-07T16:43:20;4.70;;;1.87;;
19095;SDS011;9680;52.520;13.332;2022-12-07T16:45:46;11.27;;;2.10;;
19095;SDS011;9680;52.520;13.332;2022-12-07T16:48:13;5.10;;;2.00;;
19095;SDS011;9680;52.520;13.332;2022-12-07T16:50:40;5.50;;;1.90;;
19095;SDS011;9680;52.520;13.332;2022-12-07T16:53:07;7.97;;;1.90;;
19095;SDS011;9680;52.520;13.332;2022-12-07T16:55:37;4.23;;;1.60;;
19095;SDS011;9680;52.520;13.332;2022-12-07T16:58:04;9.80;;;2.10;;
19095;SDS011;9680;52.520;13.332;2022-12-07T17:00:30;8.70;;;1.73;;
19095;SDS011;9680;52.520;13.332;2022-12-07T17:02:56;9.33;;;2.03;;
19095;SDS011;9680;52.520;13.332;2022-12-07T17:05:22;9.63;;;1.93;;
19095;SDS011;9680;52.520;13.332;2022-12-07T17:07:50;11.83;;;2.13;;
19095;SDS011;9680;52.520;13.332;2022-12-07T17:10:16;5.73;;;1.83;;
19095;SDS011;9680;52.520;13.332;2022-12-07T17:12:42;8.00;;;1.80;;
19095;SDS011;9680;52.520;13.332;2022-12-07T17:15:08;6.53;;;1.60;;
19095;SDS011;9680;52.520;13.332;2022-12-07T17:17:53;7.13;;;1.70;;
19095;SDS011;9680;52.520;13.332;2022-12-07T17:20:23;6.03;;;1.90;;
19095;SDS011;9680;52.520;13.332;2022-12-07T17:22:51;9.93;;;1.77;;